createdAt,value
2023-05-10T05:57:04.016Z,60.45
2023-05-10T05:59:31.790Z,62.42
2023-05-10T06:01:59.628Z,56.22
2023-05-10T06:04:27.636Z,51.90
2023-05-10T06:06:55.448Z,56.30
2023-05-10T06:09:24.712Z,47.03
2023-05-10T06:11:52.563Z,54.92
2023-05-10T06:14:22.624Z,52.58
2023-05-10T06:16:50.967Z,40.72
2023-05-10T06:19:18.908Z,36.03
2023-05-10T06:21:46.708Z,44.42
2023-05-10T06:24:14.600Z,40.92
2023-05-10T06:26:42.403Z,39.83
2023-05-10T06:29:10.541Z,42.65
2023-05-10T06:31:39.895Z,44.08
2023-05-10T06:34:08.974Z,41.95
2023-05-10T06:36:36.775Z,44.20
2023-05-10T06:39:05.082Z,48.72
2023-05-10T06:41:33.112Z,41.58
2023-05-10T06:44:00.959Z,49.88
2023-05-10T06:46:28.929Z,48.83
2023-05-10T06:48:58.177Z,47.30
2023-05-10T06:51:26.119Z,48.03
2023-05-10T06:53:54.135Z,43.90
2023-05-10T06:56:22.742Z,37.47
2023-05-10T06:58:51.641Z,31.98
2023-05-10T07:01:19.556Z,29.17
2023-05-10T07:03:47.779Z,31.55
2023-05-10T07:06:29.430Z,29.48
2023-05-10T07:09:01.342Z,21.70
2023-05-10T07:11:29.702Z,19.90
2023-05-10T07:13:57.528Z,19.70
2023-05-10T07:16:25.512Z,17.58
2023-05-10T07:18:54.502Z,17.48
2023-05-10T07:21:25.029Z,17.88
2023-05-10T07:23:52.951Z,15.15
2023-05-10T07:26:21.773Z,13.82
2023-05-10T07:28:49.960Z,14.23
2023-05-10T07:31:17.935Z,13.52
2023-05-10T07:33:45.873Z,15.43
2023-05-10T07:36:13.805Z,14.05
2023-05-10T07:38:43.027Z,14.93
2023-05-10T07:41:10.820Z,11.95
2023-05-10T07:43:38.790Z,15.43
2023-05-10T07:46:07.037Z,14.23
2023-05-10T07:48:35.171Z,14.35
2023-05-10T07:51:02.971Z,12.60
2023-05-10T07:53:30.876Z,12.95
2023-05-10T07:56:00.823Z,13.10
2023-05-10T07:58:28.907Z,13.68
2023-05-10T08:00:57.427Z,11.13
2023-05-10T08:03:25.448Z,12.57
2023-05-10T08:05:53.321Z,12.48
2023-05-10T08:08:22.663Z,12.45
2023-05-10T08:10:50.747Z,14.65
2023-05-10T08:13:19.926Z,11.90
2023-05-10T08:15:48.753Z,12.73
2023-05-10T08:18:16.919Z,11.73
2023-05-10T08:20:44.764Z,11.98
2023-05-10T08:23:14.029Z,13.18
2023-05-10T08:25:42.264Z,12.52
2023-05-10T08:28:11.901Z,12.98
2023-05-10T08:30:41.282Z,13.32
2023-05-10T08:33:09.133Z,13.40
2023-05-10T08:35:37.157Z,10.90
2023-05-10T08:38:05.167Z,12.25
2023-05-10T08:40:33.140Z,13.57
2023-05-10T08:43:07.023Z,11.88
2023-05-10T08:45:38.800Z,14.63
2023-05-10T08:48:10.026Z,13.55
2023-05-10T08:50:38.958Z,14.05
2023-05-10T08:53:12.724Z,12.63
2023-05-10T08:55:41.140Z,12.80
2023-05-10T08:58:09.710Z,12.73
2023-05-10T09:00:38.961Z,14.75
2023-05-10T09:03:08.212Z,11.32
2023-05-10T09:05:37.634Z,13.13
2023-05-10T09:08:06.308Z,14.38
2023-05-10T09:10:34.469Z,12.85
2023-05-10T09:13:02.796Z,12.68
2023-05-10T09:15:30.629Z,16.00
2023-05-10T09:18:00.366Z,11.07
2023-05-10T09:20:29.772Z,12.75
2023-05-10T09:22:57.745Z,9.20
2023-05-10T09:25:25.685Z,8.77
2023-05-10T09:27:54.879Z,8.38
2023-05-10T09:30:27.542Z,7.45
2023-05-10T09:32:56.281Z,6.43
2023-05-10T09:35:28.028Z,7.13
2023-05-10T09:38:00.028Z,6.53
2023-05-10T09:40:28.886Z,7.05
2023-05-10T09:42:58.959Z,8.60
2023-05-10T09:45:29.130Z,8.90
2023-05-10T09:47:57.233Z,8.02
2023-05-10T09:50:25.764Z,6.53
2023-05-10T09:52:56.037Z,7.07
2023-05-10T09:55:27.422Z,6.40
2023-05-10T09:58:02.839Z,7.13
2023-05-10T10:00:36.283Z,7.07
2023-05-10T10:03:04.548Z,6.25
2023-05-10T10:05:33.237Z,6.32
2023-05-10T10:08:02.122Z,6.60
2023-05-10T10:10:32.830Z,6.30
2023-05-10T10:13:00.837Z,6.38
2023-05-10T10:15:28.989Z,6.85
2023-05-10T10:17:56.880Z,6.97
2023-05-10T10:20:26.080Z,7.60
2023-05-10T10:22:54.767Z,7.43
2023-05-10T10:25:23.717Z,6.82
2023-05-10T10:28:08.052Z,8.55
2023-05-10T10:30:41.521Z,8.48
2023-05-10T10:33:28.777Z,7.97
2023-05-10T10:35:59.752Z,6.60
2023-05-10T10:38:27.704Z,7.90
2023-05-10T10:41:05.097Z,11.93
2023-05-10T10:43:34.279Z,7.40
2023-05-10T10:46:14.571Z,8.23
2023-05-10T10:48:42.857Z,6.95
2023-05-10T10:51:12.774Z,7.63
2023-05-10T10:53:41.139Z,6.57
2023-05-10T10:56:10.881Z,7.60
2023-05-10T10:58:41.217Z,6.57
2023-05-10T11:01:17.425Z,6.25
2023-05-10T11:04:20.057Z,8.30
2023-05-10T11:06:47.910Z,6.25
2023-05-10T11:09:15.790Z,7.75
2023-05-10T11:11:52.878Z,6.30
2023-05-10T11:14:24.261Z,5.55
2023-05-10T11:16:52.682Z,6.75
2023-05-10T11:19:21.239Z,6.18
2023-05-10T11:21:50.474Z,5.68
2023-05-10T11:24:20.095Z,6.88
2023-05-10T11:26:48.624Z,6.38
2023-05-10T11:29:17.865Z,5.85
2023-05-10T11:31:49.608Z,5.40
2023-05-10T11:34:26.049Z,8.35
2023-05-10T11:36:55.005Z,5.55
2023-05-10T11:39:23.261Z,5.72
2023-05-10T11:41:51.656Z,6.10
2023-05-10T11:44:19.600Z,5.30
2023-05-10T11:46:48.965Z,6.30
2023-05-10T11:49:17.390Z,4.45
2023-05-10T11:51:45.595Z,4.97
2023-05-10T11:54:13.963Z,4.28
2023-05-10T11:56:43.136Z,3.75
2023-05-10T11:59:10.942Z,3.72
2023-05-10T12:01:39.060Z,3.70
2023-05-10T12:04:08.459Z,5.72
2023-05-10T12:06:42.844Z,3.30
2023-05-10T12:09:10.862Z,4.82
2023-05-10T12:11:42.522Z,4.57
2023-05-10T12:14:11.828Z,3.95
2023-05-10T12:16:39.747Z,4.22
2023-05-10T12:19:09.139Z,4.95
2023-05-10T12:21:37.117Z,2.92
2023-05-10T12:24:05.946Z,16.13
2023-05-10T12:26:34.276Z,4.63
2023-05-10T12:29:16.471Z,3.65
2023-05-10T12:31:54.573Z,4.22
2023-05-10T12:34:27.955Z,4.05
2023-05-10T12:36:56.325Z,3.17
2023-05-10T12:39:24.176Z,3.97
2023-05-10T12:41:52.689Z,4.50
2023-05-10T12:44:20.783Z,3.80
2023-05-10T12:46:48.912Z,3.83
2023-05-10T12:49:17.758Z,5.90
2023-05-10T12:51:47.307Z,6.07
2023-05-10T12:54:15.558Z,4.07
2023-05-10T12:56:43.745Z,3.95
2023-05-10T12:59:11.626Z,4.00
2023-05-10T13:01:39.541Z,3.95
2023-05-10T13:04:07.462Z,4.50
2023-05-10T13:06:35.964Z,4.70
2023-05-10T13:09:05.789Z,4.68
2023-05-10T13:11:33.636Z,4.30
2023-05-10T13:14:01.404Z,7.22
2023-05-10T13:16:29.256Z,4.82
2023-05-10T13:18:57.136Z,5.20
2023-05-10T13:21:25.956Z,5.28
2023-05-10T13:23:53.787Z,5.25
2023-05-10T13:26:23.170Z,6.88
2023-05-10T13:28:52.870Z,4.63
2023-05-10T13:31:21.476Z,4.68
2023-05-10T13:33:49.938Z,10.27
2023-05-10T13:36:17.831Z,7.50
2023-05-10T13:38:45.736Z,5.82
2023-05-10T13:41:13.643Z,6.03
2023-05-10T13:43:42.827Z,5.05
2023-05-10T13:46:10.745Z,5.40
2023-05-10T13:48:39.205Z,5.40
2023-05-10T13:51:07.138Z,6.03
2023-05-10T13:53:34.925Z,6.68
2023-05-10T13:56:03.183Z,4.93
2023-05-10T13:58:31.194Z,5.30
2023-05-10T14:01:00.345Z,5.53
2023-05-10T14:03:28.392Z,7.20
2023-05-10T14:05:56.188Z,8.63
2023-05-10T14:08:24.078Z,8.43
2023-05-10T14:10:53.148Z,7.40
2023-05-10T14:13:20.964Z,9.27
2023-05-10T14:15:48.903Z,11.00
2023-05-10T14:18:18.354Z,8.18
2023-05-10T14:20:46.154Z,8.95
2023-05-10T14:23:14.562Z,8.80
2023-05-10T14:25:42.733Z,8.95
2023-05-10T14:28:10.593Z,11.75
2023-05-10T14:30:38.449Z,8.80
2023-05-10T14:33:06.286Z,9.85
2023-05-10T14:35:35.427Z,9.05
2023-05-10T14:38:04.344Z,9.43
2023-05-10T14:40:32.537Z,8.50
2023-05-10T14:43:00.725Z,9.02
2023-05-10T14:45:28.513Z,9.27
2023-05-10T14:47:56.350Z,9.05
2023-05-10T14:50:35.694Z,14.20
2023-05-10T14:53:06.374Z,8.25
2023-05-10T14:55:35.660Z,9.05
2023-05-10T14:58:04.006Z,8.75
2023-05-10T15:00:32.129Z,9.38
2023-05-10T15:03:00.454Z,9.55
2023-05-10T15:05:28.788Z,8.35
2023-05-10T15:07:57.109Z,9.00
2023-05-10T15:10:26.284Z,13.50
2023-05-10T15:12:54.154Z,9.93
2023-05-10T15:15:22.206Z,11.07
2023-05-10T15:17:50.579Z,8.63
2023-05-10T15:20:18.593Z,8.35
2023-05-10T15:22:46.722Z,8.25
2023-05-10T15:25:15.777Z,8.73
2023-05-10T15:27:45.483Z,7.82
2023-05-10T15:30:14.082Z,8.45
2023-05-10T15:32:42.025Z,8.88
2023-05-10T15:35:11.539Z,7.68
2023-05-10T15:37:39.573Z,7.22
2023-05-10T15:40:08.486Z,6.45
2023-05-10T15:42:36.270Z,7.18
2023-05-10T15:45:06.981Z,9.60
2023-05-10T15:47:34.851Z,6.35
2023-05-10T15:50:02.878Z,7.78
2023-05-10T15:52:30.887Z,9.25
2023-05-10T15:54:58.949Z,6.10
2023-05-10T15:57:26.797Z,8.02
2023-05-10T15:59:54.582Z,6.22
2023-05-10T16:02:31.933Z,5.78
2023-05-10T16:04:59.748Z,6.18
2023-05-10T16:07:27.681Z,8.00
2023-05-10T16:09:55.528Z,6.30
2023-05-10T16:12:23.362Z,6.88
2023-05-10T16:14:51.231Z,6.38
2023-05-10T16:17:21.529Z,8.18
2023-05-10T16:19:51.197Z,8.02
2023-05-10T16:22:19.095Z,8.32
2023-05-10T16:24:47.293Z,7.00
2023-05-10T16:27:15.963Z,7.55
2023-05-10T16:29:43.789Z,6.97
2023-05-10T16:32:11.694Z,6.57
2023-05-10T16:34:39.629Z,5.80
2023-05-10T16:37:08.888Z,6.25
2023-05-10T16:39:37.069Z,5.85
2023-05-10T16:42:05.170Z,7.72
2023-05-10T16:44:32.938Z,5.55
2023-05-10T16:47:00.803Z,5.03
2023-05-10T16:49:28.671Z,4.95
2023-05-10T16:51:56.686Z,5.53
2023-05-10T16:54:26.192Z,5.50
2023-05-10T16:56:54.479Z,6.80
2023-05-10T16:59:22.298Z,3.83
2023-05-10T17:01:53.031Z,4.72
2023-05-10T17:04:21.124Z,3.47
2023-05-10T17:06:48.899Z,3.58
2023-05-10T17:09:16.937Z,4.55
2023-05-10T17:11:46.555Z,3.50
2023-05-10T17:14:14.754Z,4.55
2023-05-10T17:16:42.827Z,3.38
2023-05-10T17:19:11.646Z,4.47
2023-05-10T17:21:39.404Z,4.18
2023-05-10T17:24:07.518Z,3.90
2023-05-10T17:26:35.610Z,3.20
2023-05-10T17:29:04.941Z,3.65
2023-05-10T17:31:33.380Z,4.43
2023-05-10T17:34:03.963Z,5.10
2023-05-10T17:36:33.386Z,4.93
2023-05-10T17:39:01.806Z,4.30
2023-05-10T17:41:29.762Z,4.30
2023-05-10T17:43:57.686Z,5.18
2023-05-10T17:46:26.937Z,5.60
2023-05-10T17:48:54.790Z,4.63
2023-05-10T17:51:22.644Z,5.97
2023-05-10T17:53:50.778Z,5.32
2023-05-10T17:56:18.566Z,4.57
2023-05-10T17:58:46.783Z,4.32
2023-05-10T18:01:14.700Z,4.05
2023-05-10T18:03:44.210Z,5.18
2023-05-10T18:06:12.609Z,4.22
2023-05-10T18:08:40.636Z,4.40
2023-05-10T18:11:08.736Z,4.82
2023-05-10T18:13:36.550Z,5.43
2023-05-10T18:16:05.695Z,5.55
2023-05-10T18:18:33.509Z,6.28
2023-05-10T18:21:03.664Z,5.22
2023-05-10T18:23:31.548Z,7.10
2023-05-10T18:25:59.309Z,6.22
2023-05-10T18:28:27.447Z,6.03
2023-05-10T18:30:55.272Z,6.05
2023-05-10T18:33:23.187Z,5.57
2023-05-10T18:35:51.398Z,5.53
2023-05-10T18:38:20.933Z,7.60
2023-05-10T18:40:48.740Z,5.45
2023-05-10T18:43:16.862Z,6.05
2023-05-10T18:45:45.278Z,6.40
2023-05-10T18:48:13.252Z,5.85
2023-05-10T18:50:41.061Z,6.88
2023-05-10T18:53:08.930Z,6.68
2023-05-10T18:55:38.081Z,6.00
2023-05-10T18:58:05.900Z,6.35
2023-05-10T19:00:33.727Z,7.25
2023-05-10T19:03:01.542Z,5.63
2023-05-10T19:05:30.370Z,6.15
2023-05-10T19:07:58.447Z,5.45
2023-05-10T19:10:26.334Z,6.70
2023-05-10T19:12:55.691Z,8.90
2023-05-10T19:15:23.738Z,8.07
2023-05-10T19:17:51.897Z,6.60
2023-05-10T19:20:19.883Z,6.95
2023-05-10T19:23:02.027Z,6.45
2023-05-10T19:25:35.958Z,6.90
2023-05-10T19:28:05.268Z,10.30
2023-05-10T19:30:33.169Z,8.40
2023-05-10T19:33:02.991Z,9.10
2023-05-10T19:35:30.844Z,11.77
2023-05-10T19:37:58.624Z,8.15
2023-05-10T19:40:26.441Z,7.60
2023-05-10T19:42:56.758Z,8.20
2023-05-10T19:45:26.253Z,8.30
2023-05-10T19:47:54.224Z,9.18
2023-05-10T19:50:22.246Z,7.53
2023-05-10T19:52:51.477Z,8.60
2023-05-10T19:55:28.252Z,7.78
2023-05-10T19:57:56.077Z,7.00
2023-05-10T20:00:27.237Z,8.90
2023-05-10T20:02:55.729Z,7.30
2023-05-10T20:05:23.679Z,9.40
2023-05-10T20:07:51.825Z,8.75
2023-05-10T20:10:19.802Z,8.73
2023-05-10T20:12:51.170Z,8.80
2023-05-10T20:15:20.188Z,9.63
2023-05-10T20:17:52.113Z,8.80
2023-05-10T20:20:20.952Z,11.57
2023-05-10T20:22:49.650Z,9.15
2023-05-10T20:25:18.999Z,9.30
2023-05-10T20:27:47.566Z,10.85
2023-05-10T20:30:15.996Z,7.47
2023-05-10T20:32:44.449Z,6.78
2023-05-10T20:35:13.658Z,7.30
2023-05-10T20:37:41.535Z,7.45
2023-05-10T20:40:10.951Z,7.93
2023-05-10T20:42:38.880Z,8.52
2023-05-10T20:45:07.896Z,7.00
2023-05-10T20:47:36.924Z,9.25
2023-05-10T20:50:05.474Z,7.80
2023-05-10T20:52:34.654Z,10.63
2023-05-10T20:55:02.531Z,11.02
2023-05-10T20:57:30.342Z,8.07
2023-05-10T20:59:58.497Z,12.40
2023-05-10T21:02:26.515Z,21.13
2023-05-10T21:04:57.002Z,19.33
2023-05-10T21:07:25.845Z,15.38
2023-05-10T21:09:55.368Z,10.57
2023-05-10T21:12:23.336Z,10.88
2023-05-10T21:14:51.263Z,10.23
2023-05-10T21:17:20.253Z,12.13
2023-05-10T21:19:48.655Z,12.10
2023-05-10T21:22:16.877Z,13.75
2023-05-10T21:24:45.166Z,13.82
2023-05-10T21:27:14.821Z,12.52
2023-05-10T21:29:42.757Z,10.90
2023-05-10T21:32:10.757Z,11.50
2023-05-10T21:34:38.563Z,11.30
2023-05-10T21:37:06.477Z,11.18
2023-05-10T21:39:34.311Z,13.32
2023-05-10T21:42:03.399Z,12.15
2023-05-10T21:44:32.640Z,13.63
2023-05-10T21:47:00.558Z,13.60
2023-05-10T21:49:28.495Z,11.70
2023-05-10T21:51:56.304Z,13.43
2023-05-10T21:54:24.215Z,13.93
2023-05-10T21:56:52.332Z,11.02
2023-05-10T21:59:21.384Z,13.38
2023-05-10T22:01:50.704Z,13.35
2023-05-10T22:04:18.547Z,12.52
2023-05-10T22:06:46.926Z,11.32
2023-05-10T22:09:14.762Z,12.02
2023-05-10T22:11:42.596Z,11.35
2023-05-10T22:14:10.586Z,14.70
2023-05-10T22:16:38.416Z,12.70
2023-05-10T22:19:07.647Z,12.05
2023-05-10T22:21:35.690Z,9.40
2023-05-10T22:24:03.535Z,15.60
2023-05-10T22:26:31.346Z,15.00
2023-05-10T22:29:04.253Z,13.27
2023-05-10T22:31:32.443Z,12.60
2023-05-10T22:34:00.356Z,13.27
2023-05-10T22:36:32.729Z,13.55
2023-05-10T22:39:00.645Z,10.68
2023-05-10T22:41:28.489Z,12.75
2023-05-10T22:43:56.863Z,15.85
2023-05-10T22:46:24.835Z,13.05
2023-05-10T22:48:53.118Z,18.17
2023-05-10T22:51:21.140Z,15.73
2023-05-10T22:53:50.533Z,13.43
2023-05-10T22:56:18.389Z,16.55
2023-05-10T22:58:46.352Z,14.50
2023-05-10T23:01:14.851Z,13.43
2023-05-10T23:03:42.774Z,14.82
2023-05-10T23:06:10.756Z,13.93
2023-05-10T23:08:38.588Z,14.27
2023-05-10T23:11:07.779Z,17.45
2023-05-10T23:13:35.960Z,15.95
2023-05-10T23:16:07.109Z,14.55
2023-05-10T23:18:35.139Z,18.10
2023-05-10T23:21:03.028Z,16.60
2023-05-10T23:23:31.083Z,15.18
2023-05-10T23:25:58.926Z,16.10
2023-05-10T23:28:28.176Z,17.23
2023-05-10T23:30:56.651Z,14.80
2023-05-10T23:33:25.328Z,17.33
2023-05-10T23:35:53.149Z,18.65
2023-05-10T23:38:21.002Z,18.83
2023-05-10T23:40:50.406Z,16.30
2023-05-10T23:43:19.731Z,17.67
2023-05-10T23:45:55.709Z,18.92
2023-05-10T23:48:23.728Z,18.15
2023-05-10T23:50:52.011Z,19.95
2023-05-10T23:53:19.938Z,19.80
2023-05-10T23:55:47.865Z,18.45
2023-05-10T23:58:15.791Z,20.52
